Time;durP1;ratioP1;P1;durP2;ratioP2;P2;SDS_P1;SDS_P2;PMS_P1;PMS_P2;Temp;Humidity;BMP_temperature;BMP_pressure;BME280_temperature;BME280_humidity;BME280_pressure;Samples;Min_cycle;Max_cycle;Signal;HPM_P1;HPM_P2
2023/04/13 00:01:00;;;;;;;2.15;0.90;;;7.60;99.90;;;;;;5072741;28;20452;-79
2023/04/13 00:03:29;;;;;;;1.40;0.70;;;7.50;99.90;;;;;;5073823;28;20460;-79
2023/04/13 00:05:55;;;;;;;1.48;0.65;;;7.60;99.90;;;;;;5073500;28;20379;-79
2023/04/13 00:08:21;;;;;;;1.77;0.70;;;7.60;99.90;;;;;;5072583;28;20399;-79
2023/04/13 00:10:49;;;;;;;2.42;0.88;;;7.60;99.90;;;;;;5073126;28;20892;-79
2023/04/13 00:13:15;;;;;;;2.25;0.90;;;7.60;99.90;;;;;;5072115;28;20481;-79
2023/04/13 00:15:42;;;;;;;2.50;1.00;;;7.70;99.90;;;;;;5064739;28;20385;-78
2023/04/13 00:18:09;;;;;;;1.42;0.70;;;7.70;99.90;;;;;;5052191;28;20396;-79
2023/04/13 00:20:35;;;;;;;5.25;0.80;;;7.70;99.90;;;;;;5053826;28;20879;-79
2023/04/13 00:23:00;;;;;;;1.30;0.60;;;7.80;99.90;;;;;;5053686;28;20469;-82
2023/04/13 00:25:26;;;;;;;3.20;0.90;;;7.80;99.90;;;;;;5052145;28;20424;-80
2023/04/13 00:27:51;;;;;;;2.10;0.90;;;7.70;99.90;;;;;;5054390;28;20444;-82
2023/04/13 00:30:18;;;;;;;2.00;1.10;;;7.70;99.90;;;;;;5052842;28;20424;-81
2023/04/13 00:32:44;;;;;;;1.00;0.83;;;7.70;99.90;;;;;;5053217;28;20437;-82
2023/04/13 00:35:14;;;;;;;1.40;0.85;;;7.70;99.90;;;;;;5054339;28;20392;-81
2023/04/13 00:37:41;;;;;;;1.40;0.75;;;7.70;99.90;;;;;;5052210;28;20555;-81
2023/04/13 00:40:09;;;;;;;1.95;0.80;;;7.60;99.90;;;;;;5052166;28;20396;-82
2023/04/13 00:42:35;;;;;;;1.85;0.70;;;7.60;99.90;;;;;;5054103;28;20385;-82
2023/04/13 00:45:01;;;;;;;1.50;0.70;;;7.70;99.90;;;;;;5053819;28;20389;-83
2023/04/13 00:47:33;;;;;;;2.60;0.88;;;7.70;99.90;;;;;;5052435;28;20476;-82
2023/04/13 00:50:03;;;;;;;1.90;0.90;;;7.70;99.90;;;;;;5052946;28;20423;-83
2023/04/13 00:52:28;;;;;;;1.67;0.88;;;7.70;99.90;;;;;;5052749;28;20914;-82
2023/04/13 00:54:56;;;;;;;3.00;0.90;;;7.60;99.90;;;;;;5051498;28;20489;-81
2023/04/13 00:57:23;;;;;;;2.92;1.17;;;7.60;99.90;;;;;;5053040;28;20389;-81
2023/04/13 00:59:49;;;;;;;0.90;0.70;;;7.60;99.90;;;;;;5051678;28;20492;-83
2023/04/13 01:02:15;;;;;;;1.00;0.70;;;7.60;99.90;;;;;;5062805;28;20910;-79
2023/04/13 01:04:44;;;;;;;1.63;0.60;;;7.70;99.90;;;;;;5064984;28;20868;-79
2023/04/13 01:07:24;;;;;;;3.08;0.80;;;7.60;99.90;;;;;;5059327;28;20393;-79
2023/04/13 01:10:19;;;;;;;4.45;0.80;;;7.60;99.90;;;;;;5055061;28;20450;-79
2023/04/13 01:13:12;;;;;;;1.75;1.00;;;7.50;99.90;;;;;;5053356;28;20480;-80
2023/04/13 01:15:45;;;;;;;1.50;0.70;;;7.60;99.90;;;;;;5058475;28;20378;-80
2023/04/13 01:18:14;;;;;;;1.77;0.80;;;7.50;99.90;;;;;;5074160;28;20865;-80
2023/04/13 01:20:42;;;;;;;1.70;0.60;;;7.50;99.90;;;;;;5071022;28;20925;-80
2023/04/13 01:23:17;;;;;;;2.20;0.80;;;7.50;99.90;;;;;;5071319;28;20399;-80
2023/04/13 01:26:07;;;;;;;2.53;0.70;;;7.50;99.90;;;;;;5072736;28;20432;-79
2023/04/13 01:28:35;;;;;;;2.50;0.90;;;7.60;99.90;;;;;;5071667;28;20388;-80
2023/04/13 01:31:04;;;;;;;5.68;0.98;;;7.50;99.90;;;;;;5072516;28;20399;-80
2023/04/13 01:33:32;;;;;;;1.58;0.80;;;7.50;99.90;;;;;;5072834;28;20390;-79
2023/04/13 01:35:59;;;;;;;3.00;0.90;;;7.50;99.90;;;;;;5072562;28;20372;-79
2023/04/13 01:38:25;;;;;;;2.80;1.00;;;7.50;99.90;;;;;;5072297;28;20529;-80
2023/04/13 01:40:51;;;;;;;3.13;0.82;;;7.50;99.90;;;;;;5070877;28;20411;-79
2023/04/13 01:43:18;;;;;;;1.58;0.70;;;7.40;99.90;;;;;;5072561;28;20387;-79
2023/04/13 01:46:04;;;;;;;3.10;0.80;;;7.40;99.90;;;;;;5071986;28;20382;-79
2023/04/13 01:48:41;;;;;;;2.65;0.80;;;7.40;99.90;;;;;;5070865;28;20873;-79
2023/04/13 01:51:10;;;;;;;2.30;1.00;;;7.40;99.90;;;;;;5071564;28;20441;-79
2023/04/13 01:53:49;;;;;;;1.60;0.70;;;7.40;99.90;;;;;;5071246;28;20384;-79
2023/04/13 01:56:18;;;;;;;2.97;0.80;;;7.40;99.90;;;;;;5071409;28;20388;-78
2023/04/13 01:58:46;;;;;;;3.00;1.05;;;7.40;99.90;;;;;;5070108;28;20456;-78
2023/04/13 02:01:13;;;;;;;3.35;1.00;;;7.40;99.90;;;;;;5073906;28;20451;-78
2023/04/13 02:03:38;;;;;;;1.40;0.68;;;7.40;99.90;;;;;;5076374;28;20466;-78
2023/04/13 02:06:06;;;;;;;1.80;0.70;;;7.40;99.90;;;;;;5074019;28;20411;-78
2023/04/13 02:08:31;;;;;;;2.45;0.70;;;7.40;99.90;;;;;;5074037;28;20387;-77
2023/04/13 02:10:57;;;;;;;2.63;0.70;;;7.30;99.90;;;;;;5074116;28;20470;-78
2023/04/13 02:13:24;;;;;;;3.03;1.00;;;7.30;99.90;;;;;;5075078;28;20379;-77
2023/04/13 02:15:49;;;;;;;2.75;0.80;;;7.20;99.90;;;;;;5065154;28;20408;-76
2023/04/13 02:18:15;;;;;;;1.83;0.90;;;7.20;99.90;;;;;;5055552;28;21060;-78
2023/04/13 02:20:43;;;;;;;1.83;0.70;;;7.20;99.90;;;;;;5082740;22;20435;-82
2023/04/13 02:23:15;;;;;;;3.00;0.70;;;7.20;99.90;;;;;;5080893;28;20406;-82
2023/04/13 02:25:42;;;;;;;4.70;1.00;;;7.20;99.90;;;;;;5080954;28;20403;-82
2023/04/13 02:28:08;;;;;;;2.60;1.00;;;7.20;99.90;;;;;;5062666;28;20379;-82
2023/04/13 02:30:34;;;;;;;4.18;1.10;;;7.20;99.90;;;;;;5059897;28;20400;-81
2023/04/13 02:33:00;;;;;;;4.95;0.80;;;7.10;99.90;;;;;;5079780;28;20447;-82
2023/04/13 02:35:26;;;;;;;2.00;0.50;;;7.10;99.90;;;;;;5082952;28;20363;-81
2023/04/13 02:37:52;;;;;;;1.80;0.60;;;7.10;99.90;;;;;;5093287;28;20391;-83
2023/04/13 02:40:18;;;;;;;2.97;1.10;;;7.20;99.90;;;;;;5084446;28;20383;-82
2023/04/13 02:42:43;;;;;;;4.00;0.77;;;7.20;99.90;;;;;;5067554;28;20430;-82
2023/04/13 02:45:14;;;;;;;1.30;0.60;;;7.10;99.90;;;;;;5085637;28;20379;-82
2023/04/13 02:47:39;;;;;;;2.40;0.82;;;7.20;99.90;;;;;;5065993;28;20449;-82
2023/04/13 02:50:06;;;;;;;1.70;0.60;;;7.20;99.90;;;;;;5064988;28;20399;-82
2023/04/13 02:52:31;;;;;;;2.80;0.70;;;7.30;99.90;;;;;;5082149;28;20384;-82
2023/04/13 02:54:57;;;;;;;2.40;1.10;;;7.20;99.90;;;;;;5082470;28;20796;-82
2023/04/13 02:57:24;;;;;;;2.50;1.05;;;7.20;99.90;;;;;;5063042;28;20929;-82
2023/04/13 02:59:50;;;;;;;2.20;1.20;;;7.30;99.90;;;;;;5081991;28;20394;-81
2023/04/13 03:02:16;;;;;;;2.53;0.85;;;7.30;99.90;;;;;;5064395;28;20398;-82
2023/04/13 03:04:43;;;;;;;3.22;0.90;;;7.30;99.90;;;;;;5081530;28;20471;-82
2023/04/13 03:07:09;;;;;;;3.97;1.10;;;7.30;99.90;;;;;;5062658;28;20392;-82
2023/04/13 03:09:40;;;;;;;2.22;0.80;;;7.30;99.90;;;;;;5081211;28;20404;-82
2023/04/13 03:12:09;;;;;;;3.40;1.10;;;7.30;99.90;;;;;;5079094;28;20379;-82
2023/04/13 03:14:35;;;;;;;3.13;1.53;;;7.30;99.90;;;;;;5063200;28;20527;-83
2023/04/13 03:17:02;;;;;;;3.63;1.10;;;7.40;99.90;;;;;;5085157;28;20379;-81
2023/04/13 03:19:28;;;;;;;2.10;0.73;;;7.30;99.90;;;;;;5085213;28;20384;-81
2023/04/13 03:21:54;;;;;;;3.10;1.10;;;7.30;99.90;;;;;;5067360;28;20406;-81
2023/04/13 03:24:20;;;;;;;3.17;1.00;;;7.30;99.90;;;;;;5067195;28;20396;-81
2023/04/13 03:26:45;;;;;;;5.50;1.40;;;7.30;99.90;;;;;;5084113;28;20384;-82
2023/04/13 03:29:11;;;;;;;4.27;1.10;;;7.30;99.90;;;;;;5083237;28;20434;-81
2023/04/13 03:31:37;;;;;;;2.53;1.10;;;7.20;99.90;;;;;;5083254;28;20451;-82
2023/04/13 03:34:02;;;;;;;4.87;1.20;;;7.20;99.90;;;;;;5065174;28;20388;-81
2023/04/13 03:36:28;;;;;;;3.57;1.10;;;7.30;99.90;;;;;;5082336;28;20387;-81
2023/04/13 03:38:54;;;;;;;3.70;1.20;;;7.20;99.90;;;;;;5065583;28;20406;-81
2023/04/13 03:41:21;;;;;;;2.95;0.93;;;7.20;99.90;;;;;;5083875;28;20392;-82
2023/04/13 03:43:47;;;;;;;2.40;0.90;;;7.20;99.90;;;;;;5082985;28;20395;-82
2023/04/13 03:46:12;;;;;;;8.53;1.50;;;7.30;99.90;;;;;;5064643;28;20391;-81
2023/04/13 03:48:41;;;;;;;4.53;1.00;;;7.30;99.90;;;;;;5081729;28;20417;-81
2023/04/13 03:51:07;;;;;;;3.92;1.20;;;7.30;99.90;;;;;;5083227;28;20415;-81
2023/04/13 03:53:36;;;;;;;1.95;1.00;;;7.20;99.90;;;;;;5083198;28;20407;-82
2023/04/13 03:56:02;;;;;;;4.00;1.40;;;7.30;99.90;;;;;;5064632;28;20379;-81
2023/04/13 03:58:28;;;;;;;4.00;0.90;;;7.30;99.90;;;;;;5064929;28;20870;-81
2023/04/13 04:00:53;;;;;;;2.80;0.90;;;7.30;99.90;;;;;;5064964;28;20380;-82
2023/04/13 04:03:20;;;;;;;3.40;1.07;;;7.30;99.90;;;;;;5064548;28;20398;-82
2023/04/13 04:05:46;;;;;;;3.45;1.20;;;7.40;99.90;;;;;;5082840;28;20380;-81
2023/04/13 04:08:12;;;;;;;2.90;1.10;;;7.40;99.90;;;;;;5064725;28;20380;-81
2023/04/13 04:10:37;;;;;;;6.97;1.40;;;7.30;99.90;;;;;;5062803;28;20403;-81
2023/04/13 04:13:03;;;;;;;3.28;1.13;;;7.40;99.90;;;;;;5082878;28;20418;-81
2023/04/13 04:15:29;;;;;;;4.70;1.27;;;7.30;99.90;;;;;;5076171;28;20463;-81
2023/04/13 04:17:54;;;;;;;4.10;0.93;;;7.20;99.90;;;;;;5044305;28;20385;-83
2023/04/13 04:20:20;;;;;;;5.63;1.25;;;7.30;99.90;;;;;;5061229;28;20381;-82
2023/04/13 04:22:46;;;;;;;4.73;1.30;;;7.30;99.90;;;;;;5063879;28;20412;-82
2023/04/13 04:25:16;;;;;;;2.80;1.00;;;7.30;99.90;;;;;;5055088;28;20389;-82
2023/04/13 04:27:45;;;;;;;4.18;1.40;;;7.20;99.90;;;;;;5065015;28;20472;-82
2023/04/13 04:30:12;;;;;;;4.68;1.05;;;7.10;99.90;;;;;;5063763;28;20447;-82
2023/04/13 04:32:40;;;;;;;6.20;1.40;;;7.20;99.90;;;;;;5070342;28;20450;-81
2023/04/13 04:35:07;;;;;;;1.88;0.88;;;7.20;99.90;;;;;;5070078;28;20409;-82
2023/04/13 04:37:36;;;;;;;4.57;1.17;;;7.20;99.90;;;;;;5064845;28;20388;-82
2023/04/13 04:40:06;;;;;;;3.92;1.00;;;7.10;99.90;;;;;;5045561;28;20386;-81
2023/04/13 04:42:32;;;;;;;2.90;0.95;;;7.10;99.90;;;;;;5063020;28;20389;-81
2023/04/13 04:44:58;;;;;;;3.70;1.13;;;7.00;99.90;;;;;;5063607;28;20408;-80
2023/04/13 04:47:23;;;;;;;3.50;1.10;;;7.10;99.90;;;;;;5063022;28;20468;-81
2023/04/13 04:49:49;;;;;;;3.30;1.10;;;7.10;99.90;;;;;;5062106;28;20405;-82
2023/04/13 04:52:14;;;;;;;3.13;1.30;;;7.20;99.90;;;;;;5061267;28;20412;-82
2023/04/13 04:54:40;;;;;;;3.80;1.13;;;7.10;99.90;;;;;;5061223;28;20490;-83
2023/04/13 04:57:09;;;;;;;5.50;1.37;;;7.10;99.90;;;;;;5060406;28;20962;-81
2023/04/13 04:59:35;;;;;;;5.72;1.70;;;7.20;99.90;;;;;;5041583;28;20389;-81
2023/04/13 05:02:00;;;;;;;1.87;0.87;;;7.10;99.90;;;;;;5060210;28;20391;-82
2023/04/13 05:04:26;;;;;;;2.40;1.17;;;7.20;99.90;;;;;;5061070;28;20413;-81
2023/04/13 05:06:51;;;;;;;6.27;1.30;;;7.20;99.90;;;;;;5041935;28;20832;-82
2023/04/13 05:09:19;;;;;;;3.63;1.00;;;7.10;99.90;;;;;;5060688;28;20401;-83
2023/04/13 05:11:44;;;;;;;3.55;1.23;;;7.10;99.90;;;;;;5061475;28;20415;-81
2023/04/13 05:14:10;;;;;;;4.78;1.02;;;7.00;99.90;;;;;;5059905;28;20456;-82
2023/04/13 05:16:36;;;;;;;3.40;1.15;;;7.10;99.90;;;;;;5074861;28;20486;-82
2023/04/13 05:19:04;;;;;;;5.50;1.10;;;7.10;99.90;;;;;;5062562;28;20479;-82
2023/04/13 05:21:29;;;;;;;3.58;1.30;;;7.10;99.90;;;;;;5079910;28;20826;-82
2023/04/13 05:23:55;;;;;;;4.57;1.00;;;7.10;99.90;;;;;;5081181;28;20384;-82
2023/04/13 05:26:21;;;;;;;2.22;1.20;;;7.20;99.90;;;;;;5062193;28;20387;-82
2023/04/13 05:28:46;;;;;;;4.23;1.37;;;7.20;99.90;;;;;;5063117;28;20414;-82
2023/04/13 05:31:12;;;;;;;4.00;1.20;;;7.20;99.90;;;;;;5062469;28;20396;-82
2023/04/13 05:33:37;;;;;;;4.03;1.40;;;7.20;99.90;;;;;;5081754;28;20379;-82
2023/04/13 05:36:03;;;;;;;2.33;1.07;;;7.20;99.90;;;;;;5079950;28;20390;-82
2023/04/13 05:38:30;;;;;;;7.83;1.30;;;7.20;99.90;;;;;;5080089;28;20398;-81
2023/04/13 05:40:57;;;;;;;5.10;1.53;;;7.20;99.90;;;;;;5079920;28;20380;-83
2023/04/13 05:43:22;;;;;;;6.22;1.40;;;7.20;99.90;;;;;;5063700;28;20862;-83
2023/04/13 05:45:48;;;;;;;2.25;1.30;;;7.30;99.90;;;;;;5080969;28;20501;-82
2023/04/13 05:48:13;;;;;;;4.53;1.60;;;7.30;99.90;;;;;;5080674;28;20455;-82
2023/04/13 05:50:39;;;;;;;7.17;1.70;;;7.30;99.90;;;;;;5080683;28;20399;-82
2023/04/13 05:53:05;;;;;;;3.40;1.60;;;7.40;99.90;;;;;;5062392;28;20383;-81
2023/04/13 05:55:31;;;;;;;7.93;1.50;;;7.30;99.90;;;;;;5080943;28;20883;-82
2023/04/13 05:57:57;;;;;;;2.92;1.30;;;7.40;99.90;;;;;;5080795;28;20375;-82
2023/04/13 06:00:23;;;;;;;4.15;1.35;;;7.40;99.90;;;;;;5062328;28;20390;-82
2023/04/13 06:02:49;;;;;;;4.63;1.30;;;7.50;96.20;;;;;;5062269;28;20384;-82
2023/04/13 06:05:15;;;;;;;4.07;1.50;;;7.60;98.10;;;;;;5062192;28;20881;-82
2023/04/13 06:07:45;;;;;;;6.47;1.60;;;7.60;97.60;;;;;;5082511;28;20395;-83
2023/04/13 06:10:13;;;;;;;5.87;1.90;;;7.60;93.60;;;;;;5084007;28;20390;-81
2023/04/13 06:12:38;;;;;;;5.37;1.83;;;7.70;95.00;;;;;;5090192;28;20395;-82
2023/04/13 06:15:05;;;;;;;4.43;1.50;;;7.70;91.90;;;;;;5058556;28;20866;-81
2023/04/13 06:17:30;;;;;;;6.90;1.73;;;7.60;95.70;;;;;;5072993;28;20383;-82
2023/04/13 06:19:56;;;;;;;3.50;1.40;;;7.50;94.40;;;;;;5077776;28;20915;-81
2023/04/13 06:22:21;;;;;;;5.03;1.30;;;7.60;98.50;;;;;;5064639;28;20442;-81
2023/04/13 06:24:49;;;;;;;4.03;1.33;;;7.60;93.80;;;;;;5064088;28;20403;-82
2023/04/13 06:27:14;;;;;;;3.22;1.55;;;7.60;93.10;;;;;;5080111;28;20400;-82
2023/04/13 06:29:40;;;;;;;3.63;1.50;;;7.60;91.50;;;;;;5062084;28;20916;-83
2023/04/13 06:32:06;;;;;;;4.07;1.33;;;7.60;91.90;;;;;;5080911;28;20388;-81
2023/04/13 06:34:33;;;;;;;4.90;1.67;;;7.60;91.90;;;;;;5079956;28;20384;-81
2023/04/13 06:36:58;;;;;;;4.13;1.50;;;7.70;90.40;;;;;;5059947;28;20470;-82
2023/04/13 06:39:24;;;;;;;5.93;1.92;;;7.80;86.00;;;;;;5078357;28;20873;-81
2023/04/13 06:41:50;;;;;;;3.40;1.20;;;7.80;84.40;;;;;;5082573;28;20399;-81
2023/04/13 06:44:16;;;;;;;5.63;1.63;;;7.80;84.10;;;;;;5089068;28;20444;-82
2023/04/13 06:46:42;;;;;;;6.25;1.50;;;7.80;80.80;;;;;;5083540;28;20391;-82
2023/04/13 06:49:08;;;;;;;6.27;1.80;;;7.80;80.90;;;;;;5088793;28;20399;-81
2023/04/13 06:51:33;;;;;;;5.20;1.50;;;7.70;88.50;;;;;;5068335;28;20773;-83
2023/04/13 06:53:59;;;;;;;4.03;1.30;;;8.00;76.90;;;;;;5066518;28;20376;-81
2023/04/13 06:56:25;;;;;;;5.47;1.42;;;8.00;76.80;;;;;;5082561;28;20391;-81
2023/04/13 06:58:50;;;;;;;4.67;1.40;;;8.00;81.10;;;;;;5084197;28;20456;-81
2023/04/13 07:01:16;;;;;;;6.80;1.63;;;8.00;82.70;;;;;;5066920;28;20376;-82
2023/04/13 07:03:42;;;;;;;4.40;1.50;;;8.00;80.90;;;;;;5084493;28;20753;-81
2023/04/13 07:06:08;;;;;;;5.30;1.40;;;8.00;78.60;;;;;;5084752;28;20384;-81
2023/04/13 07:08:34;;;;;;;6.97;1.60;;;7.90;85.40;;;;;;5065017;28;20474;-81
2023/04/13 07:11:01;;;;;;;5.25;1.50;;;7.60;85.90;;;;;;5065324;28;20388;-81
2023/04/13 07:13:26;;;;;;;6.18;1.30;;;7.70;91.20;;;;;;5082537;28;20376;-82
2023/04/13 07:15:52;;;;;;;2.30;1.50;;;7.70;89.90;;;;;;5081898;28;20893;-81
2023/04/13 07:18:18;;;;;;;6.90;1.50;;;7.70;91.10;;;;;;5068356;28;20393;-83
2023/04/13 07:20:43;;;;;;;5.18;1.90;;;7.70;91.70;;;;;;5064015;28;20425;-82
2023/04/13 07:23:09;;;;;;;10.03;2.17;;;7.70;92.90;;;;;;5063094;28;20390;-83
2023/04/13 07:25:34;;;;;;;5.00;1.50;;;7.70;92.80;;;;;;5045693;28;20385;-82
2023/04/13 07:28:00;;;;;;;6.93;2.10;;;7.90;91.90;;;;;;5045148;28;20393;-83
2023/04/13 07:30:26;;;;;;;3.95;1.60;;;8.00;85.60;;;;;;5062897;28;20439;-82
2023/04/13 07:32:52;;;;;;;4.60;1.50;;;8.00;80.70;;;;;;5062726;28;20392;-81
2023/04/13 07:35:17;;;;;;;6.47;1.93;;;8.20;77.80;;;;;;5045416;28;20388;-82
2023/04/13 07:37:45;;;;;;;5.80;1.70;;;8.40;75.70;;;;;;5045940;28;20385;-82
2023/04/13 07:40:11;;;;;;;5.10;1.95;;;8.50;71.80;;;;;;5063074;28;20762;-83
2023/04/13 07:42:37;;;;;;;5.32;1.75;;;8.70;65.60;;;;;;5061894;28;20381;-82
2023/04/13 07:45:04;;;;;;;7.00;1.80;;;8.60;64.30;;;;;;5062872;28;20395;-83
2023/04/13 07:47:29;;;;;;;6.78;1.88;;;8.70;65.30;;;;;;5063778;28;20884;-84
2023/04/13 07:49:55;;;;;;;10.10;2.00;;;8.70;64.80;;;;;;5063046;28;20404;-84
2023/04/13 07:52:21;;;;;;;5.40;1.60;;;8.50;68.30;;;;;;5063745;28;20850;-83
2023/04/13 07:54:46;;;;;;;6.22;1.60;;;8.80;63.50;;;;;;5063010;28;20374;-80
2023/04/13 07:57:12;;;;;;;3.42;1.40;;;8.80;67.30;;;;;;5062532;28;20382;-83
2023/04/13 07:59:38;;;;;;;4.32;1.73;;;8.50;66.40;;;;;;5062424;28;20373;-80
2023/04/13 08:02:04;;;;;;;6.32;2.10;;;8.60;68.00;;;;;;5062462;28;20392;-81
2023/04/13 08:04:30;;;;;;;8.30;2.40;;;8.60;70.50;;;;;;5042720;28;20799;-80
2023/04/13 08:06:56;;;;;;;6.65;1.88;;;8.60;72.60;;;;;;5060193;28;20438;-81
2023/04/13 08:09:21;;;;;;;7.82;2.08;;;8.60;68.10;;;;;;5041366;28;20480;-80
2023/04/13 08:11:48;;;;;;;6.07;2.20;;;8.40;72.20;;;;;;5060693;28;20388;-80
2023/04/13 08:14:14;;;;;;;6.82;1.70;;;8.50;71.70;;;;;;5065540;28;20385;-80
2023/04/13 08:16:39;;;;;;;6.80;2.15;;;8.40;73.80;;;;;;5078970;28;20409;-80
2023/04/13 08:19:06;;;;;;;7.60;1.90;;;8.40;79.70;;;;;;5075884;28;20391;-80
2023/04/13 08:21:32;;;;;;;8.00;1.93;;;8.40;77.60;;;;;;5082453;28;20459;-79
2023/04/13 08:23:57;;;;;;;6.07;1.80;;;8.30;79.10;;;;;;5087924;28;20395;-80
2023/04/13 08:26:23;;;;;;;5.47;1.70;;;8.50;76.10;;;;;;5085866;28;20443;-80
2023/04/13 08:28:51;;;;;;;10.18;1.85;;;8.70;77.90;;;;;;5082561;28;20394;-81
2023/04/13 08:31:17;;;;;;;9.13;2.20;;;8.70;73.80;;;;;;5064789;28;20380;-80
2023/04/13 08:33:43;;;;;;;7.00;2.13;;;8.80;69.60;;;;;;5064995;28;20384;-79
2023/04/13 08:36:08;;;;;;;5.73;1.40;;;8.90;73.90;;;;;;5082960;28;20379;-80
2023/04/13 08:38:34;;;;;;;5.03;1.73;;;8.80;73.50;;;;;;5063354;28;20395;-80
2023/04/13 08:41:02;;;;;;;7.97;2.20;;;9.10;70.80;;;;;;5080728;28;20388;-80
2023/04/13 08:43:27;;;;;;;7.20;1.90;;;9.10;67.60;;;;;;5078233;28;20384;-80
2023/04/13 08:45:53;;;;;;;7.50;1.80;;;9.60;63.90;;;;;;5072069;28;20406;-81
2023/04/13 08:48:21;;;;;;;7.47;2.70;;;9.30;57.90;;;;;;5081385;28;20376;-80
2023/04/13 08:50:50;;;;;;;7.10;1.90;;;9.20;65.20;;;;;;5063139;28;20453;-81
2023/04/13 08:53:17;;;;;;;6.40;1.73;;;9.30;59.90;;;;;;5077799;28;20401;-80
2023/04/13 08:55:47;;;;;;;4.90;1.90;;;9.10;62.00;;;;;;5062728;28;20386;-80
2023/04/13 08:58:18;;;;;;;6.15;1.70;;;8.90;66.20;;;;;;5043660;28;20400;-80
2023/04/13 09:00:46;;;;;;;11.17;2.67;;;8.90;68.00;;;;;;5061312;28;20435;-80
2023/04/13 09:03:14;;;;;;;7.45;1.85;;;8.70;72.90;;;;;;5061197;28;20752;-80
2023/04/13 09:05:41;;;;;;;7.47;2.20;;;8.90;71.20;;;;;;5062545;28;20389;-80
2023/04/13 09:08:08;;;;;;;9.50;2.00;;;8.90;67.10;;;;;;5062151;28;20767;-80
2023/04/13 09:10:34;;;;;;;6.15;1.90;;;9.00;69.50;;;;;;5059800;28;20409;-80
2023/04/13 09:13:00;;;;;;;4.27;1.87;;;9.30;60.30;;;;;;5059523;28;20411;-80
2023/04/13 09:15:25;;;;;;;7.07;1.83;;;9.50;59.60;;;;;;5065538;28;20462;-81
2023/04/13 09:17:51;;;;;;;6.72;2.45;;;9.30;61.20;;;;;;5080802;28;20415;-80
2023/04/13 09:20:22;;;;;;;7.30;2.05;;;9.60;57.10;;;;;;5080602;28;20383;-81
2023/04/13 09:22:49;;;;;;;5.30;2.10;;;9.40;55.50;;;;;;5081096;28;20379;-81
2023/04/13 09:25:27;;;;;;;5.95;2.10;;;9.50;52.70;;;;;;5080827;28;20390;-82
2023/04/13 09:27:53;;;;;;;6.55;1.70;;;9.60;48.60;;;;;;5080399;28;20387;-83
2023/04/13 09:30:26;;;;;;;5.63;1.97;;;9.80;47.90;;;;;;5080222;28;20519;-82
2023/04/13 09:33:09;;;;;;;5.50;1.90;;;9.50;49.10;;;;;;5065189;28;20451;-82
2023/04/13 09:35:36;;;;;;;5.20;2.00;;;9.20;48.00;;;;;;5060895;28;20382;-81
2023/04/13 09:38:03;;;;;;;6.03;1.73;;;9.50;50.80;;;;;;5079141;28;20947;-82
2023/04/13 09:40:29;;;;;;;4.97;1.60;;;9.50;51.30;;;;;;5061090;28;20770;-82
2023/04/13 09:43:00;;;;;;;6.53;1.80;;;9.60;50.60;;;;;;5061505;28;20383;-82
2023/04/13 09:45:38;;;;;;;4.40;1.80;;;9.60;50.70;;;;;;5061877;28;20380;-83
2023/04/13 09:48:15;;;;;;;6.80;3.05;;;9.60;49.00;;;;;;5078068;28;20398;-82
2023/04/13 09:50:41;;;;;;;5.10;1.90;;;9.80;47.10;;;;;;5060932;28;20813;-81
2023/04/13 09:53:09;;;;;;;6.40;2.20;;;9.90;49.90;;;;;;5059711;28;20417;-81
2023/04/13 09:55:36;;;;;;;6.70;2.25;;;10.00;47.70;;;;;;5083776;28;20387;-82
2023/04/13 09:58:09;;;;;;;5.78;1.80;;;10.00;47.40;;;;;;5069546;28;20445;-81
2023/04/13 10:00:40;;;;;;;6.35;2.60;;;9.90;48.40;;;;;;5066269;28;20379;-82
2023/04/13 10:03:10;;;;;;;5.50;1.80;;;9.80;49.30;;;;;;5082381;28;20410;-82
2023/04/13 10:05:37;;;;;;;3.08;1.40;;;9.90;46.50;;;;;;5062170;28;20438;-82
2023/04/13 10:08:04;;;;;;;6.20;2.30;;;9.80;45.40;;;;;;5063326;28;20919;-81
2023/04/13 10:10:31;;;;;;;5.53;1.70;;;10.10;45.30;;;;;;5082272;28;20395;-81
2023/04/13 10:13:00;;;;;;;5.10;1.70;;;10.00;47.40;;;;;;5064615;28;20384;-82
2023/04/13 10:16:10;;;;;;;5.20;1.50;;;10.10;41.80;;;;;;5057193;28;20413;-81
2023/04/13 10:18:59;;;;;;;5.28;1.40;;;10.20;40.80;;;;;;5021360;28;20390;-82
2023/04/13 10:21:32;;;;;;;3.95;1.40;;;10.40;40.70;;;;;;5046582;28;20397;-81
2023/04/13 10:23:57;;;;;;;3.75;1.50;;;10.40;42.00;;;;;;5067675;28;20389;-81
2023/04/13 10:26:33;;;;;;;3.20;1.80;;;10.70;40.30;;;;;;5050195;28;20402;-81
2023/04/13 10:29:00;;;;;;;3.08;1.70;;;10.70;38.30;;;;;;5057228;28;20403;-82
2023/04/13 10:31:45;;;;;;;4.40;2.10;;;11.20;35.80;;;;;;5074816;28;20391;-81
2023/04/13 10:34:24;;;;;;;3.17;1.40;;;11.30;30.10;;;;;;5083494;28;20383;-81
2023/04/13 10:36:52;;;;;;;2.90;1.17;;;11.50;28.70;;;;;;5064300;28;20387;-82
2023/04/13 10:39:29;;;;;;;4.15;1.40;;;11.50;27.30;;;;;;5074210;28;20448;-81
2023/04/13 10:42:03;;;;;;;7.15;2.38;;;11.30;28.70;;;;;;5085649;28;20384;-82
2023/04/13 10:44:40;;;;;;;4.90;1.45;;;11.10;28.70;;;;;;5065367;28;20390;-81
2023/04/13 10:47:07;;;;;;;4.60;1.40;;;11.40;29.60;;;;;;5081558;28;20874;-82
2023/04/13 10:49:33;;;;;;;4.25;1.50;;;11.30;28.40;;;;;;5064874;28;20412;-81
2023/04/13 10:51:58;;;;;;;4.80;1.30;;;11.70;30.50;;;;;;5082831;28;20923;-82
2023/04/13 10:54:28;;;;;;;3.13;1.13;;;11.80;30.30;;;;;;5082250;28;20471;-81
2023/04/13 10:57:02;;;;;;;3.60;1.70;;;11.50;25.50;;;;;;5082944;28;20720;-81
2023/04/13 10:59:55;;;;;;;2.30;1.00;;;11.30;22.40;;;;;;5066991;28;20451;-81
2023/04/13 11:02:30;;;;;;;3.90;1.45;;;11.40;22.10;;;;;;5081630;28;20391;-83
2023/04/13 11:04:56;;;;;;;2.57;1.00;;;11.30;25.10;;;;;;5065655;28;20460;-81
2023/04/13 11:07:24;;;;;;;4.10;1.50;;;11.30;28.30;;;;;;5064504;28;20901;-81
2023/04/13 11:09:56;;;;;;;3.10;1.30;;;11.20;29.60;;;;;;5061226;28;20395;-82
2023/04/13 11:12:21;;;;;;;3.38;1.25;;;11.30;28.50;;;;;;5081930;28;20862;-82
2023/04/13 11:14:48;;;;;;;4.37;0.93;;;11.40;29.70;;;;;;5082148;28;20505;-81
2023/04/13 11:17:16;;;;;;;4.25;1.60;;;11.90;27.70;;;;;;5062713;28;20385;-82
2023/04/13 11:19:46;;;;;;;2.35;1.13;;;11.90;27.40;;;;;;5061683;28;20397;-82
2023/04/13 11:22:16;;;;;;;2.67;1.40;;;11.80;25.60;;;;;;5055393;28;20444;-82
2023/04/13 11:24:42;;;;;;;5.50;1.80;;;11.80;25.50;;;;;;5081184;28;20399;-82
2023/04/13 11:27:22;;;;;;;3.95;1.30;;;12.00;23.70;;;;;;5073199;28;20455;-82
2023/04/13 11:30:08;;;;;;;4.22;1.00;;;11.60;23.80;;;;;;5086990;28;20392;-82
2023/04/13 11:32:35;;;;;;;4.80;1.20;;;11.50;19.70;;;;;;5064326;28;20398;-81
2023/04/13 11:35:13;;;;;;;3.35;1.48;;;11.30;21.00;;;;;;5068076;28;20398;-82
2023/04/13 11:37:40;;;;;;;3.40;1.45;;;11.10;23.10;;;;;;5045963;28;20435;-83
2023/04/13 11:40:19;;;;;;;5.78;1.70;;;11.20;24.60;;;;;;5068347;28;20405;-82
2023/04/13 11:42:50;;;;;;;5.25;1.60;;;11.30;25.70;;;;;;5072771;28;20511;-82
2023/04/13 11:45:16;;;;;;;3.80;1.80;;;11.40;24.90;;;;;;5072160;28;20865;-82
2023/04/13 11:47:43;;;;;;;6.53;2.15;;;11.90;23.00;;;;;;5064171;28;20381;-82
2023/04/13 11:50:09;;;;;;;6.65;2.00;;;11.50;26.40;;;;;;5076690;28;20433;-82
2023/04/13 11:52:35;;;;;;;4.77;2.20;;;11.40;34.10;;;;;;5048357;28;20383;-82
2023/04/13 11:55:05;;;;;;;6.78;2.35;;;11.20;29.70;;;;;;5052440;28;20945;-83
2023/04/13 11:57:32;;;;;;;4.70;1.60;;;11.00;28.40;;;;;;5055751;28;20390;-82
2023/04/13 11:59:58;;;;;;;5.43;1.70;;;10.80;30.00;;;;;;5046896;28;20396;-83
2023/04/13 12:02:31;;;;;;;4.55;1.50;;;10.80;29.80;;;;;;5059436;28;20389;-82
2023/04/13 12:04:56;;;;;;;4.40;1.75;;;10.70;32.10;;;;;;5072070;28;20375;-82
2023/04/13 12:07:23;;;;;;;2.00;1.03;;;10.50;39.70;;;;;;5050473;28;20400;-83
2023/04/13 12:09:53;;;;;;;4.95;1.55;;;9.60;94.80;;;;;;5061331;28;20403;-82
2023/04/13 12:12:23;;;;;;;2.35;1.25;;;8.80;99.90;;;;;;5050313;28;20384;-82
2023/04/13 12:14:57;;;;;;;1.40;1.10;;;8.40;99.90;;;;;;5068428;28;20389;-85
2023/04/13 12:17:30;;;;;;;2.20;1.00;;;7.60;99.90;;;;;;5051942;28;20475;-83
2023/04/13 12:19:57;;;;;;;4.57;1.52;;;7.20;99.90;;;;;;5057978;28;20383;-84
2023/04/13 12:22:23;;;;;;;2.95;1.30;;;6.70;99.90;;;;;;5065472;28;20404;-83
2023/04/13 12:24:49;;;;;;;1.20;0.70;;;6.30;99.90;;;;;;5081909;28;20395;-83
2023/04/13 12:27:16;;;;;;;2.17;0.95;;;6.20;99.90;;;;;;5059616;28;20426;-82
2023/04/13 12:29:41;;;;;;;2.90;0.75;;;6.50;99.90;;;;;;5060183;28;20807;-83
2023/04/13 12:32:13;;;;;;;1.50;0.80;;;6.50;99.90;;;;;;5070523;28;20383;-84
2023/04/13 12:34:40;;;;;;;2.43;0.83;;;6.60;99.90;;;;;;5041790;28;20384;-83
2023/04/13 12:37:06;;;;;;;1.50;0.90;;;6.60;99.90;;;;;;5066778;28;20411;-84
2023/04/13 12:39:32;;;;;;;2.33;0.93;;;6.80;99.90;;;;;;5074945;28;20380;-83
2023/04/13 12:41:57;;;;;;;3.53;1.17;;;6.90;99.90;;;;;;5038274;28;20438;-83
2023/04/13 12:44:23;;;;;;;2.30;1.20;;;7.00;99.90;;;;;;5072463;28;20380;-83
2023/04/13 12:46:48;;;;;;;1.47;1.20;;;8.90;99.90;;;;;;5065463;28;20388;-85
2023/04/13 12:49:14;;;;;;;4.30;1.30;;;7.40;99.90;;;;;;5066555;28;20425;-84
2023/04/13 12:51:39;;;;;;;2.90;1.60;;;7.70;99.90;;;;;;5050972;28;20392;-85
2023/04/13 12:54:11;;;;;;;2.90;1.40;;;8.00;99.90;;;;;;5051004;28;20384;-85
2023/04/13 12:56:40;;;;;;;5.45;1.50;;;8.00;99.90;;;;;;5061508;28;20886;-85
2023/04/13 12:59:06;;;;;;;2.80;1.30;;;8.40;99.90;;;;;;5062992;28;20389;-85